Isle of Benbecula, United Kingdom
Current Conditions -  °F | °C
As of 3:50 AM on Tuesday 23 Dec 2014 (Local Time) from EGPL Reporting Station
Light Rain Light Rain  
Wind Chill: 33°   Ceiling: Unl
Heat Index: 43°   Visibility: 6mi
Dew Point: 37°   Wind: 25mph
Humidity: 81%   Direction: 260°W
Pressure: 29.53"   Gusts: 37mph
Location:  57.47°N, 7.37°W
Report Text: EGPL 230350Z AUTO 26022G32KT 9000 -RA FEW031/// SCT037/// 06/03 Q1000
Loading
Personal Weather Stations






























Interactive Weather Map New forecast layout! Learn more

10-Day Weather Forecast

Advertisements
Track Severe Weather on mobile